Time;durP1;ratioP1;P1;durP2;ratioP2;P2;SDS_P1;SDS_P2;PMS_P1;PMS_P2;Temp;Humidity;BMP_temperature;BMP_pressure;BME280_temperature;BME280_humidity;BME280_pressure;Samples;Min_cycle;Max_cycle;Signal;HPM_P1;HPM_P2
2021/07/19 00:01:38;;;;;;;7.50;3.57;;;;;;;;;;5103421;28;20500;-61
2021/07/19 00:04:06;;;;;;;6.13;3.27;;;;;;;;;;5109299;28;20432;-61
2021/07/19 00:06:53;;;;;;;7.37;3.60;;;;;;;;;;5107513;28;20443;-61
2021/07/19 00:09:22;;;;;;;6.20;3.93;;;;;;;;;;5110282;28;20442;-60
2021/07/19 00:11:50;;;;;;;9.83;3.60;;;;;;;;;;5102130;28;20778;-61
2021/07/19 00:14:20;;;;;;;5.53;2.90;;;;;;;;;;5093478;28;20488;-61
2021/07/19 00:16:47;;;;;;;6.67;3.70;;;;;;;;;;5093733;28;20448;-60
2021/07/19 00:19:15;;;;;;;5.90;3.57;;;;;;;;;;5125622;28;20450;-60
2021/07/19 00:21:45;;;;;;;11.50;4.67;;;;;;;;;;5126724;28;20443;-60
2021/07/19 00:24:12;;;;;;;8.13;3.43;;;;;;;;;;5127615;28;20931;-61
2021/07/19 00:26:41;;;;;;;7.50;4.00;;;;;;;;;;5134934;28;20454;-59
2021/07/19 00:29:10;;;;;;;4.90;3.70;;;;;;;;;;5133675;28;20542;-60
2021/07/19 00:31:41;;;;;;;6.13;3.67;;;;;;;;;;5133616;28;20465;-61
2021/07/19 00:34:15;;;;;;;6.30;3.40;;;;;;;;;;5122680;28;20532;-60
2021/07/19 00:36:43;;;;;;;6.33;3.47;;;;;;;;;;5119329;28;20635;-61
2021/07/19 00:39:11;;;;;;;7.40;3.73;;;;;;;;;;5124155;28;20462;-61
2021/07/19 00:41:39;;;;;;;5.77;3.70;;;;;;;;;;5134374;28;20523;-60
2021/07/19 00:44:09;;;;;;;9.80;4.67;;;;;;;;;;5100031;28;20517;-61
2021/07/19 00:46:36;;;;;;;7.57;3.60;;;;;;;;;;5108571;28;20455;-60
2021/07/19 00:49:04;;;;;;;10.70;3.60;;;;;;;;;;5094368;28;20432;-59
2021/07/19 00:51:31;;;;;;;5.20;3.30;;;;;;;;;;5094417;28;20479;-60
2021/07/19 00:53:58;;;;;;;7.70;3.50;;;;;;;;;;5094134;28;20456;-59
2021/07/19 00:56:27;;;;;;;6.37;4.20;;;;;;;;;;5093785;28;20482;-60
2021/07/19 00:58:55;;;;;;;6.90;4.03;;;;;;;;;;5093486;28;20470;-60
2021/07/19 01:01:26;;;;;;;7.30;4.63;;;;;;;;;;5100654;28;20566;-60
2021/07/19 01:04:01;;;;;;;6.90;4.00;;;;;;;;;;5115149;28;20444;-60
2021/07/19 01:06:30;;;;;;;4.53;3.60;;;;;;;;;;5098300;28;20455;-60
2021/07/19 01:08:57;;;;;;;6.47;4.50;;;;;;;;;;5093564;28;20450;-61
2021/07/19 01:11:26;;;;;;;5.80;3.87;;;;;;;;;;5094140;28;20432;-61
2021/07/19 01:13:53;;;;;;;8.53;4.30;;;;;;;;;;5099808;28;20528;-59
2021/07/19 01:16:20;;;;;;;6.13;4.30;;;;;;;;;;5114769;28;20493;-60
2021/07/19 01:18:55;;;;;;;6.43;4.03;;;;;;;;;;5117461;28;20447;-60
2021/07/19 01:21:34;;;;;;;5.40;3.87;;;;;;;;;;5135428;28;20465;-60
2021/07/19 01:24:09;;;;;;;6.27;3.63;;;;;;;;;;5133817;28;20458;-61
2021/07/19 01:26:47;;;;;;;8.30;4.40;;;;;;;;;;5125663;28;20450;-60
2021/07/19 01:29:17;;;;;;;7.23;5.10;;;;;;;;;;5114762;28;20459;-56
2021/07/19 01:31:46;;;;;;;6.13;3.80;;;;;;;;;;5113772;28;20466;-59
2021/07/19 01:34:14;;;;;;;6.80;4.33;;;;;;;;;;5119697;28;20470;-59
2021/07/19 01:36:44;;;;;;;7.80;5.00;;;;;;;;;;5125704;28;20446;-59
2021/07/19 01:39:13;;;;;;;10.23;4.67;;;;;;;;;;5106320;28;20493;-60
2021/07/19 01:41:42;;;;;;;9.10;4.67;;;;;;;;;;5135202;28;20486;-57
2021/07/19 01:44:17;;;;;;;9.83;4.03;;;;;;;;;;5134374;28;20445;-59
2021/07/19 01:46:47;;;;;;;7.33;4.07;;;;;;;;;;5127678;28;20454;-60
2021/07/19 01:49:15;;;;;;;6.53;4.17;;;;;;;;;;5116656;28;20477;-61
2021/07/19 01:51:55;;;;;;;10.77;4.70;;;;;;;;;;5133965;28;20484;-60
2021/07/19 01:54:24;;;;;;;7.00;4.63;;;;;;;;;;5130882;28;20459;-61
2021/07/19 01:56:52;;;;;;;13.40;4.83;;;;;;;;;;5110158;28;20456;-61
2021/07/19 01:59:26;;;;;;;10.47;4.60;;;;;;;;;;5094087;28;20491;-61
2021/07/19 02:01:53;;;;;;;8.93;4.40;;;;;;;;;;5115196;28;20496;-62
2021/07/19 02:04:21;;;;;;;8.23;4.57;;;;;;;;;;5093814;28;20482;-61
2021/07/19 02:06:50;;;;;;;9.63;5.53;;;;;;;;;;5094174;28;20456;-61
2021/07/19 02:09:18;;;;;;;9.90;5.03;;;;;;;;;;5118882;28;20459;-60
2021/07/19 02:11:46;;;;;;;8.00;4.77;;;;;;;;;;5135121;28;20454;-60
2021/07/19 02:14:14;;;;;;;10.30;5.80;;;;;;;;;;5124009;28;21012;-62
2021/07/19 02:16:45;;;;;;;8.93;5.60;;;;;;;;;;5114880;28;20435;-60
2021/07/19 02:19:15;;;;;;;12.03;5.60;;;;;;;;;;5114069;28;20467;-61
2021/07/19 02:21:45;;;;;;;10.07;5.20;;;;;;;;;;5114056;28;20455;-61
2021/07/19 02:24:13;;;;;;;7.30;4.53;;;;;;;;;;5114629;28;20478;-61
2021/07/19 02:26:41;;;;;;;9.30;4.70;;;;;;;;;;5114401;28;20481;-60
2021/07/19 02:29:09;;;;;;;7.63;5.20;;;;;;;;;;5098214;28;20448;-61
2021/07/19 02:31:40;;;;;;;11.30;6.00;;;;;;;;;;5134548;28;20415;-60
2021/07/19 02:34:09;;;;;;;9.03;5.37;;;;;;;;;;5115269;28;20455;-59
2021/07/19 02:36:37;;;;;;;6.53;4.93;;;;;;;;;;5125367;28;20490;-60
2021/07/19 02:39:05;;;;;;;11.20;4.50;;;;;;;;;;5134909;28;20458;-60
2021/07/19 02:41:34;;;;;;;10.77;5.63;;;;;;;;;;5124262;28;20466;-60
2021/07/19 02:44:03;;;;;;;7.77;4.37;;;;;;;;;;5114561;28;20436;-60
2021/07/19 02:46:32;;;;;;;7.77;5.47;;;;;;;;;;5094196;28;20820;-59
2021/07/19 02:49:00;;;;;;;8.60;4.93;;;;;;;;;;5116662;28;20461;-60
2021/07/19 02:51:30;;;;;;;9.30;6.03;;;;;;;;;;5124656;28;20443;-61
2021/07/19 02:53:59;;;;;;;8.30;5.47;;;;;;;;;;5117396;28;20450;-60
2021/07/19 02:56:28;;;;;;;8.47;4.90;;;;;;;;;;5134293;28;20490;-61
2021/07/19 02:58:55;;;;;;;9.37;6.20;;;;;;;;;;5107072;28;20460;-61
2021/07/19 03:01:23;;;;;;;12.90;6.20;;;;;;;;;;5098968;28;20487;-60
2021/07/19 03:03:55;;;;;;;8.40;6.60;;;;;;;;;;5113489;28;20466;-60
2021/07/19 03:06:26;;;;;;;9.90;5.00;;;;;;;;;;5113261;28;20462;-60
2021/07/19 03:08:55;;;;;;;10.10;7.13;;;;;;;;;;5107301;28;20516;-60
2021/07/19 03:11:33;;;;;;;9.70;6.50;;;;;;;;;;5119264;28;20456;-61
2021/07/19 03:14:02;;;;;;;8.27;6.37;;;;;;;;;;5093268;28;20444;-60
2021/07/19 03:16:29;;;;;;;11.73;6.67;;;;;;;;;;5092782;28;20484;-59
2021/07/19 03:22:03;;;;;;;13.20;9.13;;;;;;;;;;5106710;28;20465;-60
2021/07/19 03:24:41;;;;;;;11.10;5.63;;;;;;;;;;5098088;28;20436;-59
2021/07/19 03:27:11;;;;;;;10.40;6.20;;;;;;;;;;5092458;28;20458;-60
2021/07/19 03:29:40;;;;;;;10.57;6.43;;;;;;;;;;5075201;28;20460;-58
2021/07/19 03:32:16;;;;;;;11.37;6.27;;;;;;;;;;5098209;28;20456;-60
2021/07/19 03:34:44;;;;;;;13.93;6.20;;;;;;;;;;5105573;28;20699;-59
2021/07/19 03:37:11;;;;;;;9.70;6.33;;;;;;;;;;5103226;28;20452;-59
2021/07/19 03:39:54;;;;;;;7.97;5.27;;;;;;;;;;5106446;28;20527;-61
2021/07/19 03:42:22;;;;;;;12.13;6.20;;;;;;;;;;5112863;28;20451;-60
2021/07/19 03:44:50;;;;;;;11.30;6.53;;;;;;;;;;5113141;28;20469;-62
2021/07/19 03:47:37;;;;;;;8.67;6.13;;;;;;;;;;5112907;28;20532;-61
2021/07/19 03:50:07;;;;;;;11.50;6.20;;;;;;;;;;5096257;28;20460;-60
2021/07/19 03:52:35;;;;;;;10.70;6.30;;;;;;;;;;5110492;28;20455;-61
2021/07/19 03:55:06;;;;;;;13.27;7.13;;;;;;;;;;5112930;28;20487;-61
2021/07/19 03:57:35;;;;;;;14.70;6.60;;;;;;;;;;5111206;28;20509;-61
2021/07/19 04:00:06;;;;;;;9.93;5.87;;;;;;;;;;5113526;28;20455;-60
2021/07/19 04:02:35;;;;;;;8.30;6.50;;;;;;;;;;5113887;28;20512;-60
2021/07/19 04:05:05;;;;;;;11.80;6.10;;;;;;;;;;5113467;28;20863;-60
2021/07/19 04:07:36;;;;;;;10.03;6.00;;;;;;;;;;5105883;28;20464;-60
2021/07/19 04:10:07;;;;;;;10.33;6.03;;;;;;;;;;5092105;28;20798;-59
2021/07/19 04:12:34;;;;;;;8.97;5.83;;;;;;;;;;5092237;28;20478;-61
2021/07/19 04:15:02;;;;;;;9.13;5.40;;;;;;;;;;5092570;28;20464;-60
2021/07/19 04:17:31;;;;;;;7.90;5.70;;;;;;;;;;5093377;28;20458;-59
2021/07/19 04:19:59;;;;;;;14.07;6.00;;;;;;;;;;5112298;28;20462;-60
2021/07/19 04:22:28;;;;;;;7.87;5.17;;;;;;;;;;5112338;28;20518;-60
2021/07/19 04:24:55;;;;;;;10.73;5.20;;;;;;;;;;5108641;28;20448;-60
2021/07/19 04:27:31;;;;;;;8.60;5.90;;;;;;;;;;5095648;28;20466;-60
2021/07/19 04:30:02;;;;;;;42.50;12.47;;;;;;;;;;5110952;28;20481;-61
2021/07/19 04:32:30;;;;;;;12.13;6.90;;;;;;;;;;5096417;28;20444;-62
2021/07/19 04:35:02;;;;;;;10.93;6.77;;;;;;;;;;5092249;28;20454;-61
2021/07/19 04:37:30;;;;;;;10.67;7.10;;;;;;;;;;5108391;28;20451;-61
2021/07/19 04:39:57;;;;;;;13.80;7.43;;;;;;;;;;5111854;28;20459;-59
2021/07/19 04:42:33;;;;;;;12.03;7.63;;;;;;;;;;5096059;28;20471;-58
2021/07/19 04:45:01;;;;;;;12.70;8.30;;;;;;;;;;5090681;28;20486;-61
2021/07/19 04:47:28;;;;;;;12.27;9.07;;;;;;;;;;5106101;28;20463;-65
2021/07/19 04:49:56;;;;;;;10.73;8.67;;;;;;;;;;5111279;28;20435;-61
2021/07/19 04:52:23;;;;;;;13.17;10.13;;;;;;;;;;5102644;28;20459;-62
2021/07/19 04:54:55;;;;;;;20.03;9.50;;;;;;;;;;5108446;28;20474;-62
2021/07/19 04:57:26;;;;;;;9.97;8.33;;;;;;;;;;5110967;28;20577;-62
2021/07/19 04:59:56;;;;;;;16.13;8.97;;;;;;;;;;5110056;28;20462;-62
2021/07/19 05:02:24;;;;;;;10.83;8.10;;;;;;;;;;5093556;28;20495;-62
2021/07/19 05:04:56;;;;;;;14.20;8.40;;;;;;;;;;5094916;28;20459;-60
2021/07/19 05:07:24;;;;;;;18.60;8.70;;;;;;;;;;5097556;28;20455;-59
2021/07/19 05:09:52;;;;;;;17.03;9.20;;;;;;;;;;5113426;28;20447;-60
2021/07/19 05:12:28;;;;;;;16.87;9.77;;;;;;;;;;5105682;28;20451;-60
2021/07/19 05:15:06;;;;;;;11.70;8.50;;;;;;;;;;5103053;28;20463;-61
2021/07/19 05:17:35;;;;;;;12.50;9.53;;;;;;;;;;5114225;28;20439;-61
2021/07/19 05:20:02;;;;;;;18.30;11.67;;;;;;;;;;5110179;28;20465;-60
2021/07/19 05:22:29;;;;;;;15.50;11.67;;;;;;;;;;5104332;28;20448;-61
2021/07/19 05:24:59;;;;;;;15.87;11.47;;;;;;;;;;5095155;28;20456;-62
2021/07/19 05:27:26;;;;;;;12.07;10.20;;;;;;;;;;5103181;28;20454;-60
2021/07/19 05:29:53;;;;;;;18.50;12.43;;;;;;;;;;5112480;28;20484;-60
2021/07/19 05:32:23;;;;;;;14.07;10.20;;;;;;;;;;5111671;28;20502;-62
2021/07/19 05:34:52;;;;;;;16.90;11.83;;;;;;;;;;5099276;28;20475;-62
2021/07/19 05:37:35;;;;;;;10.80;9.63;;;;;;;;;;5093880;28;20482;-62
2021/07/19 05:40:03;;;;;;;14.70;9.67;;;;;;;;;;5096833;28;20522;-62
2021/07/19 05:42:31;;;;;;;10.43;9.00;;;;;;;;;;5106298;28;20448;-62
2021/07/19 05:44:59;;;;;;;12.87;9.60;;;;;;;;;;5101901;28;20452;-63
2021/07/19 05:47:33;;;;;;;14.27;10.87;;;;;;;;;;5102848;28;20486;-63
2021/07/19 05:50:02;;;;;;;14.60;10.40;;;;;;;;;;5092970;28;20444;-63
2021/07/19 05:52:42;;;;;;;12.90;9.57;;;;;;;;;;5106795;28;20451;-62
2021/07/19 05:55:10;;;;;;;18.03;10.70;;;;;;;;;;5111401;28;20467;-61
2021/07/19 05:57:37;;;;;;;9.97;7.70;;;;;;;;;;5091638;28;20908;-63
2021/07/19 06:00:10;;;;;;;25.53;10.97;;;;;;;;;;5092309;28;20526;-65
2021/07/19 06:02:39;;;;;;;11.30;8.67;;;;;;;;;;5119560;28;20486;-62
2021/07/19 06:05:07;;;;;;;10.63;9.00;;;;;;;;;;5133388;28;20462;-63
2021/07/19 06:07:35;;;;;;;15.43;8.53;;;;;;;;;;5128515;28;20544;-63
2021/07/19 06:10:02;;;;;;;14.03;8.43;;;;;;;;;;5111956;28;20453;-63
2021/07/19 06:12:31;;;;;;;8.50;7.53;;;;;;;;;;5120349;28;20444;-63
2021/07/19 06:14:58;;;;;;;10.40;7.97;;;;;;;;;;5110120;28;20613;-61
2021/07/19 06:17:25;;;;;;;14.40;7.57;;;;;;;;;;5130135;28;20482;-63
2021/07/19 06:19:54;;;;;;;9.93;8.00;;;;;;;;;;5130600;28;20463;-62
2021/07/19 06:22:21;;;;;;;10.30;6.60;;;;;;;;;;5113470;28;20453;-62
2021/07/19 06:24:51;;;;;;;10.60;7.77;;;;;;;;;;5122222;28;20654;-60
2021/07/19 06:27:24;;;;;;;14.30;8.37;;;;;;;;;;5124678;28;20443;-63
2021/07/19 06:29:51;;;;;;;9.10;6.63;;;;;;;;;;5133155;28;20459;-63
2021/07/19 06:32:19;;;;;;;11.27;7.40;;;;;;;;;;5129554;28;20488;-61
2021/07/19 06:34:46;;;;;;;11.50;7.80;;;;;;;;;;5132519;27;20482;-61
2021/07/19 06:37:18;;;;;;;12.00;6.73;;;;;;;;;;5122645;28;20486;-63
2021/07/19 06:42:38;;;;;;;9.90;6.70;;;;;;;;;;5122615;28;20484;-63
2021/07/19 06:45:16;;;;;;;8.53;6.57;;;;;;;;;;5113050;28;20462;-62
2021/07/19 06:48:00;;;;;;;9.00;6.47;;;;;;;;;;5113888;28;20451;-60
2021/07/19 06:50:35;;;;;;;8.60;7.20;;;;;;;;;;5132235;28;20462;-62
2021/07/19 06:53:04;;;;;;;9.63;7.07;;;;;;;;;;5129276;28;20436;-63
2021/07/19 06:58:19;;;;;;;10.60;7.87;;;;;;;;;;5125477;28;20479;-61
2021/07/19 07:00:50;;;;;;;9.73;6.87;;;;;;;;;;5120712;28;20459;-63
2021/07/19 07:03:30;;;;;;;9.30;6.77;;;;;;;;;;5128169;28;20451;-62
2021/07/19 07:05:57;;;;;;;11.70;7.20;;;;;;;;;;5126175;28;20479;-61
2021/07/19 07:08:26;;;;;;;9.43;6.83;;;;;;;;;;5126820;28;20464;-60
2021/07/19 07:10:54;;;;;;;9.30;7.20;;;;;;;;;;5128993;28;20526;-61
2021/07/19 07:13:21;;;;;;;12.43;6.50;;;;;;;;;;5124540;28;20947;-61
2021/07/19 07:15:50;;;;;;;14.37;7.43;;;;;;;;;;5126128;28;20536;-64
2021/07/19 07:18:18;;;;;;;11.83;7.07;;;;;;;;;;5113684;28;20468;-59
2021/07/19 07:20:45;;;;;;;15.33;8.07;;;;;;;;;;5113971;28;20562;-63
2021/07/19 07:23:18;;;;;;;7.50;6.60;;;;;;;;;;5114353;28;20450;-62
2021/07/19 07:25:53;;;;;;;10.80;7.50;;;;;;;;;;5108314;28;20555;-63
2021/07/19 07:28:21;;;;;;;18.10;7.40;;;;;;;;;;5104764;28;20451;-60
2021/07/19 07:30:48;;;;;;;9.77;7.30;;;;;;;;;;5098963;28;20463;-62
2021/07/19 07:33:35;;;;;;;11.60;7.40;;;;;;;;;;5109826;28;20519;-62
2021/07/19 07:36:11;;;;;;;9.67;7.50;;;;;;;;;;5091461;28;20483;-65
2021/07/19 07:38:41;;;;;;;12.63;7.27;;;;;;;;;;5092530;28;20521;-60
2021/07/19 07:41:16;;;;;;;11.30;7.63;;;;;;;;;;5095591;28;20526;-63
2021/07/19 07:43:49;;;;;;;12.77;8.20;;;;;;;;;;5093473;28;20890;-62
2021/07/19 07:46:17;;;;;;;10.20;7.93;;;;;;;;;;5095007;28;20459;-60
2021/07/19 07:48:45;;;;;;;11.23;8.10;;;;;;;;;;5106134;28;20489;-62
2021/07/19 07:51:12;;;;;;;14.73;8.17;;;;;;;;;;5110082;28;20468;-62
2021/07/19 07:54:16;;;;;;;9.73;7.63;;;;;;;;;;5099228;28;20516;-62
2021/07/19 07:56:44;;;;;;;10.63;7.10;;;;;;;;;;5101441;28;20492;-61
2021/07/19 07:59:12;;;;;;;15.13;9.07;;;;;;;;;;5101248;28;20480;-60
2021/07/19 08:01:52;;;;;;;13.20;8.10;;;;;;;;;;5103461;28;20484;-62
2021/07/19 08:04:20;;;;;;;12.20;7.40;;;;;;;;;;5101166;28;20498;-62
2021/07/19 08:06:47;;;;;;;11.90;9.10;;;;;;;;;;5092272;28;20444;-61
2021/07/19 08:09:15;;;;;;;13.20;8.97;;;;;;;;;;5105989;28;20513;-62
2021/07/19 08:11:43;;;;;;;13.83;8.50;;;;;;;;;;5101772;28;20504;-62
2021/07/19 08:14:15;;;;;;;12.13;9.13;;;;;;;;;;5103967;28;20532;-60
2021/07/19 08:17:11;;;;;;;11.50;7.77;;;;;;;;;;5117827;28;20508;-62
2021/07/19 08:19:39;;;;;;;12.60;8.93;;;;;;;;;;5103584;28;20832;-62
2021/07/19 08:22:13;;;;;;;10.17;8.20;;;;;;;;;;5102086;28;20445;-63
2021/07/19 08:25:01;;;;;;;11.27;8.33;;;;;;;;;;5087801;28;20493;-62
2021/07/19 08:27:29;;;;;;;10.90;8.20;;;;;;;;;;5111414;28;20553;-62
2021/07/19 08:29:58;;;;;;;12.10;8.37;;;;;;;;;;5120843;28;20454;-62
2021/07/19 08:32:25;;;;;;;10.73;8.10;;;;;;;;;;5122510;28;20447;-62
2021/07/19 08:34:53;;;;;;;9.60;7.53;;;;;;;;;;5117735;28;20481;-61
2021/07/19 08:37:27;;;;;;;12.23;8.40;;;;;;;;;;5123963;28;20461;-61
2021/07/19 08:39:55;;;;;;;13.23;7.40;;;;;;;;;;5127603;28;20458;-59
2021/07/19 08:42:22;;;;;;;11.70;8.23;;;;;;;;;;5123931;28;20462;-61
2021/07/19 08:44:49;;;;;;;14.37;9.40;;;;;;;;;;5120517;28;20458;-62
2021/07/19 08:47:20;;;;;;;8.90;7.57;;;;;;;;;;5117830;28;20455;-61
2021/07/19 08:49:53;;;;;;;11.90;8.10;;;;;;;;;;5102360;28;20499;-60
2021/07/19 08:52:23;;;;;;;11.47;8.43;;;;;;;;;;5133897;28;20475;-60
2021/07/19 08:54:52;;;;;;;11.37;8.87;;;;;;;;;;5127257;28;20487;-61
2021/07/19 08:57:24;;;;;;;11.57;8.63;;;;;;;;;;5116607;28;20518;-61
2021/07/19 08:59:51;;;;;;;14.73;10.63;;;;;;;;;;5116751;28;20649;-62
2021/07/19 09:02:20;;;;;;;13.73;9.57;;;;;;;;;;5130846;28;20455;-60
2021/07/19 09:04:48;;;;;;;12.47;9.20;;;;;;;;;;5134356;28;20486;-60
2021/07/19 09:07:23;;;;;;;15.30;9.83;;;;;;;;;;5131575;28;20489;-59
2021/07/19 09:09:52;;;;;;;14.00;9.43;;;;;;;;;;5127630;28;20593;-61
2021/07/19 09:12:30;;;;;;;17.80;10.23;;;;;;;;;;5133545;28;20524;-62
2021/07/19 09:14:58;;;;;;;11.30;9.87;;;;;;;;;;5131875;28;20478;-61
2021/07/19 09:17:35;;;;;;;11.40;10.00;;;;;;;;;;5130643;28;20548;-61
2021/07/19 09:20:03;;;;;;;14.30;10.60;;;;;;;;;;5122885;28;20533;-59
2021/07/19 09:22:40;;;;;;;12.93;9.93;;;;;;;;;;5128121;28;20453;-59
2021/07/19 09:25:09;;;;;;;17.97;10.47;;;;;;;;;;5134656;28;20437;-60
2021/07/19 09:27:37;;;;;;;13.87;11.17;;;;;;;;;;5102417;28;20467;-64
2021/07/19 09:30:23;;;;;;;11.83;9.93;;;;;;;;;;5092558;28;20459;-61
2021/07/19 09:32:56;;;;;;;14.93;10.43;;;;;;;;;;5101205;28;20495;-64
2021/07/19 09:35:24;;;;;;;12.43;10.20;;;;;;;;;;5101343;28;20464;-64
2021/07/19 09:37:52;;;;;;;15.60;11.57;;;;;;;;;;5100793;28;20499;-63
2021/07/19 09:40:24;;;;;;;15.03;10.77;;;;;;;;;;5092392;28;20471;-64
2021/07/19 09:43:13;;;;;;;17.87;11.70;;;;;;;;;;5103550;28;20441;-64
2021/07/19 09:45:40;;;;;;;13.00;10.67;;;;;;;;;;5099628;28;20537;-63
2021/07/19 09:48:10;;;;;;;15.43;11.80;;;;;;;;;;5091523;28;20455;-63
2021/07/19 09:50:47;;;;;;;12.40;9.87;;;;;;;;;;5092011;28;20460;-64
2021/07/19 09:53:32;;;;;;;16.20;12.47;;;;;;;;;;5095869;28;20485;-62
2021/07/19 09:56:16;;;;;;;14.03;10.73;;;;;;;;;;5119531;28;20493;-64
2021/07/19 09:58:47;;;;;;;14.27;10.40;;;;;;;;;;5097386;28;20506;-62
2021/07/19 10:01:26;;;;;;;13.17;10.73;;;;;;;;;;5105805;28;20499;-64
2021/07/19 10:04:04;;;;;;;14.37;10.00;;;;;;;;;;5096501;28;20453;-62
2021/07/19 10:06:31;;;;;;;14.90;10.73;;;;;;;;;;5104375;28;20457;-64
2021/07/19 10:09:00;;;;;;;14.37;9.87;;;;;;;;;;5108820;28;20477;-64
2021/07/19 10:11:31;;;;;;;13.73;10.40;;;;;;;;;;5098899;28;20466;-64
2021/07/19 10:14:13;;;;;;;14.97;11.90;;;;;;;;;;5097245;28;20716;-66
2021/07/19 10:16:40;;;;;;;14.87;10.23;;;;;;;;;;5095928;28;20502;-63
2021/07/19 10:19:35;;;;;;;14.37;10.10;;;;;;;;;;5103431;28;20470;-63
2021/07/19 10:22:04;;;;;;;15.70;10.83;;;;;;;;;;5098109;28;20463;-64
2021/07/19 10:24:35;;;;;;;16.13;11.70;;;;;;;;;;5095934;28;20452;-64
2021/07/19 10:27:30;;;;;;;12.60;10.67;;;;;;;;;;5100051;28;20692;-63
2021/07/19 10:29:58;;;;;;;14.93;10.57;;;;;;;;;;5082372;28;20466;-63
2021/07/19 10:32:26;;;;;;;14.93;11.37;;;;;;;;;;5096907;28;20459;-63
2021/07/19 10:34:55;;;;;;;15.70;10.90;;;;;;;;;;5094193;28;20540;-63
2021/07/19 10:37:27;;;;;;;14.90;11.17;;;;;;;;;;5100927;28;20561;-61
2021/07/19 10:39:57;;;;;;;13.33;10.70;;;;;;;;;;5090301;28;20479;-62
2021/07/19 10:42:34;;;;;;;12.10;9.53;;;;;;;;;;5095652;28;20511;-65
2021/07/19 10:45:08;;;;;;;12.40;10.03;;;;;;;;;;5094344;28;20442;-63
2021/07/19 10:47:56;;;;;;;14.60;10.93;;;;;;;;;;5097409;28;20486;-63
2021/07/19 10:50:25;;;;;;;14.97;11.40;;;;;;;;;;5093743;28;20655;-63
2021/07/19 10:52:59;;;;;;;14.03;11.47;;;;;;;;;;5097525;28;20478;-63
2021/07/19 10:55:28;;;;;;;17.17;12.83;;;;;;;;;;5089313;28;20651;-62
2021/07/19 10:58:06;;;;;;;19.40;14.67;;;;;;;;;;5106395;28;20494;-64
2021/07/19 11:00:38;;;;;;;18.87;15.20;;;;;;;;;;5099972;28;20491;-62
2021/07/19 11:03:06;;;;;;;18.47;15.50;;;;;;;;;;5087094;28;21102;-63
2021/07/19 11:05:45;;;;;;;19.83;15.37;;;;;;;;;;5100391;28;20466;-62
2021/07/19 11:08:23;;;;;;;20.43;16.27;;;;;;;;;;5097945;28;20469;-64
2021/07/19 11:10:55;;;;;;;17.10;14.50;;;;;;;;;;5093390;28;20538;-63
2021/07/19 11:13:26;;;;;;;22.03;16.70;;;;;;;;;;5092938;28;20461;-62
2021/07/19 11:15:54;;;;;;;19.23;16.43;;;;;;;;;;5101400;28;20951;-63
2021/07/19 11:18:29;;;;;;;20.90;18.03;;;;;;;;;;5101677;28;20509;-64
2021/07/19 11:20:58;;;;;;;21.83;18.13;;;;;;;;;;5099018;28;20471;-63
2021/07/19 11:23:28;;;;;;;24.20;16.80;;;;;;;;;;5096346;28;20447;-62
2021/07/19 11:25:55;;;;;;;21.17;16.13;;;;;;;;;;5103417;28;20475;-63
2021/07/19 11:28:23;;;;;;;19.73;16.33;;;;;;;;;;5100754;28;20470;-62
2021/07/19 11:31:09;;;;;;;17.77;14.93;;;;;;;;;;5101394;28;20759;-64
2021/07/19 11:33:41;;;;;;;20.60;16.17;;;;;;;;;;5101736;28;20535;-64
2021/07/19 11:36:21;;;;;;;22.17;16.30;;;;;;;;;;5105440;28;20457;-63
2021/07/19 11:38:58;;;;;;;19.87;16.03;;;;;;;;;;5103469;28;20538;-64
2021/07/19 11:41:29;;;;;;;18.63;15.93;;;;;;;;;;5103024;28;20515;-62
2021/07/19 11:43:58;;;;;;;17.73;15.63;;;;;;;;;;5090907;28;20467;-64
2021/07/19 11:46:26;;;;;;;20.73;15.77;;;;;;;;;;5096194;28;20470;-62
2021/07/19 11:49:10;;;;;;;21.80;14.90;;;;;;;;;;5092220;28;20887;-63
2021/07/19 11:51:39;;;;;;;17.10;15.23;;;;;;;;;;5103211;28;20467;-62
2021/07/19 11:54:12;;;;;;;19.23;15.80;;;;;;;;;;5095927;28;20707;-61
2021/07/19 11:56:50;;;;;;;16.20;13.90;;;;;;;;;;5104323;28;20452;-63
2021/07/19 11:59:21;;;;;;;16.47;13.50;;;;;;;;;;5099031;28;20566;-63
2021/07/19 12:01:57;;;;;;;17.03;14.13;;;;;;;;;;5102176;28;20703;-63
2021/07/19 12:04:25;;;;;;;18.20;12.07;;;;;;;;;;5096482;28;20489;-62
2021/07/19 12:06:53;;;;;;;15.90;12.73;;;;;;;;;;5107638;28;20455;-63
2021/07/19 12:09:29;;;;;;;15.97;11.20;;;;;;;;;;5090942;28;20450;-64
2021/07/19 12:12:05;;;;;;;16.70;11.10;;;;;;;;;;5099685;28;20466;-64
2021/07/19 12:14:32;;;;;;;15.67;12.53;;;;;;;;;;5092289;28;20479;-64
2021/07/19 12:17:01;;;;;;;16.67;12.87;;;;;;;;;;5112703;28;20512;-64
2021/07/19 12:19:32;;;;;;;17.03;11.63;;;;;;;;;;5130324;27;20557;-61
2021/07/19 12:22:02;;;;;;;16.50;12.10;;;;;;;;;;5126576;28;20462;-63
2021/07/19 12:24:32;;;;;;;15.50;12.70;;;;;;;;;;5129734;28;20460;-62
2021/07/19 12:27:02;;;;;;;17.20;11.90;;;;;;;;;;5124813;28;20462;-63
2021/07/19 12:29:31;;;;;;;17.70;12.90;;;;;;;;;;5125729;28;20450;-63
2021/07/19 12:32:00;;;;;;;15.20;12.53;;;;;;;;;;5128046;28;20469;-63
2021/07/19 12:34:28;;;;;;;16.53;12.60;;;;;;;;;;5128608;28;20510;-62
2021/07/19 12:36:56;;;;;;;14.43;11.93;;;;;;;;;;5124383;28;20468;-63
2021/07/19 12:39:29;;;;;;;21.00;13.50;;;;;;;;;;5118998;28;20507;-63
2021/07/19 12:41:59;;;;;;;20.43;13.67;;;;;;;;;;5121460;28;20489;-63
2021/07/19 12:44:29;;;;;;;19.50;13.80;;;;;;;;;;5129441;27;20692;-63
2021/07/19 12:46:58;;;;;;;17.67;14.33;;;;;;;;;;5135016;28;20469;-66
2021/07/19 12:49:40;;;;;;;17.83;15.40;;;;;;;;;;5129477;28;20450;-66
2021/07/19 12:52:13;;;;;;;18.70;15.20;;;;;;;;;;5114635;28;20462;-66
2021/07/19 12:54:41;;;;;;;19.10;15.40;;;;;;;;;;5111798;28;20529;-63
2021/07/19 12:57:18;;;;;;;19.40;16.20;;;;;;;;;;5098066;28;20486;-60
2021/07/19 12:59:53;;;;;;;19.40;16.00;;;;;;;;;;5096496;28;20502;-63
2021/07/19 13:02:23;;;;;;;21.43;15.60;;;;;;;;;;5104304;28;20513;-62
2021/07/19 13:05:07;;;;;;;18.87;15.70;;;;;;;;;;5113446;28;20470;-64
2021/07/19 13:07:45;;;;;;;18.73;16.40;;;;;;;;;;5094745;28;20463;-62
2021/07/19 13:10:13;;;;;;;17.57;13.80;;;;;;;;;;5097377;28;20463;-64
2021/07/19 13:12:51;;;;;;;17.90;14.90;;;;;;;;;;5095880;28;20463;-61
2021/07/19 13:15:19;;;;;;;15.50;13.70;;;;;;;;;;5108271;28;20467;-62
2021/07/19 13:17:50;;;;;;;18.57;14.53;;;;;;;;;;5107872;28;20464;-63
2021/07/19 13:20:17;;;;;;;17.27;13.90;;;;;;;;;;5097989;28;20439;-64
2021/07/19 13:23:17;;;;;;;17.20;14.27;;;;;;;;;;5096738;28;20504;-67
2021/07/19 13:25:44;;;;;;;18.60;13.90;;;;;;;;;;5112466;28;20523;-64
2021/07/19 13:28:13;;;;;;;16.37;13.00;;;;;;;;;;5105401;28;20456;-64
2021/07/19 13:30:41;;;;;;;15.10;13.20;;;;;;;;;;5094340;28;20487;-64
2021/07/19 13:33:10;;;;;;;18.07;14.03;;;;;;;;;;5102705;28;20441;-64
2021/07/19 13:35:57;;;;;;;21.50;15.87;;;;;;;;;;5103746;28;20455;-64
2021/07/19 13:38:34;;;;;;;20.17;14.73;;;;;;;;;;5093523;28;20526;-62
2021/07/19 13:41:04;;;;;;;17.27;15.40;;;;;;;;;;5096417;28;20490;-60
2021/07/19 13:43:48;;;;;;;20.73;16.60;;;;;;;;;;5107609;28;20548;-65
2021/07/19 13:46:16;;;;;;;18.33;14.90;;;;;;;;;;5109512;28;20495;-65
2021/07/19 13:48:47;;;;;;;20.80;16.40;;;;;;;;;;5103554;28;20826;-62
2021/07/19 13:51:18;;;;;;;17.60;14.30;;;;;;;;;;5109195;28;20487;-62
2021/07/19 13:54:12;;;;;;;29.23;15.77;;;;;;;;;;5105884;28;20495;-61
2021/07/19 13:56:45;;;;;;;17.73;15.07;;;;;;;;;;5127976;28;20482;-65
2021/07/19 13:59:14;;;;;;;20.23;14.67;;;;;;;;;;5116006;28;20604;-66
2021/07/19 14:01:55;;;;;;;17.93;13.87;;;;;;;;;;5123557;27;20446;-67
2021/07/19 14:04:23;;;;;;;19.70;15.17;;;;;;;;;;5134977;28;20445;-65
2021/07/19 14:07:01;;;;;;;20.60;15.37;;;;;;;;;;5127402;28;20496;-63
2021/07/19 14:09:43;;;;;;;18.57;16.30;;;;;;;;;;5122032;28;20458;-62
2021/07/19 14:12:35;;;;;;;18.63;15.00;;;;;;;;;;5121331;28;20482;-63
2021/07/19 14:15:07;;;;;;;20.10;15.80;;;;;;;;;;5115500;28;20490;-59
2021/07/19 14:17:34;;;;;;;17.30;14.20;;;;;;;;;;5118592;28;20483;-62
2021/07/19 14:20:02;;;;;;;17.17;15.30;;;;;;;;;;5125202;28;20478;-62
2021/07/19 14:22:33;;;;;;;18.27;15.63;;;;;;;;;;5130451;28;20471;-63
2021/07/19 14:25:01;;;;;;;19.90;16.80;;;;;;;;;;5127477;28;20452;-62
2021/07/19 14:27:29;;;;;;;21.17;17.87;;;;;;;;;;5131342;28;20476;-64
2021/07/19 14:29:56;;;;;;;18.00;15.63;;;;;;;;;;5118147;28;20493;-62
2021/07/19 14:32:35;;;;;;;18.60;16.60;;;;;;;;;;5126411;28;20458;-62
2021/07/19 14:35:09;;;;;;;21.13;16.43;;;;;;;;;;5114143;28;20762;-63
2021/07/19 14:37:37;;;;;;;20.60;16.30;;;;;;;;;;5113175;28;20465;-65
2021/07/19 14:40:33;;;;;;;18.33;14.40;;;;;;;;;;5120108;28;20490;-65
2021/07/19 14:43:04;;;;;;;15.27;13.67;;;;;;;;;;5114226;28;20475;-66
2021/07/19 14:45:35;;;;;;;19.30;15.30;;;;;;;;;;5117605;28;20471;-64
2021/07/19 14:48:33;;;;;;;16.70;14.77;;;;;;;;;;5115721;28;20475;-63
2021/07/19 14:51:02;;;;;;;21.33;16.30;;;;;;;;;;5110443;28;20499;-61
2021/07/19 14:53:31;;;;;;;17.17;14.57;;;;;;;;;;5082399;28;20477;-62
2021/07/19 14:55:58;;;;;;;18.27;13.70;;;;;;;;;;5081498;28;20508;-65
2021/07/19 14:58:28;;;;;;;20.07;14.90;;;;;;;;;;5091089;28;20539;-63
2021/07/19 15:01:04;;;;;;;22.00;13.27;;;;;;;;;;5078658;28;20453;-61
2021/07/19 15:03:35;;;;;;;16.37;13.70;;;;;;;;;;5088441;28;20584;-65